Terminal Aerodrome Forecast
Issued by NWS Pittsburgh, PA

Current Version | Previous Version | Graphics & Text | Print | Product List | Glossary On
Versions: 1 2 3 4 5 6 7 8 9 10 11 12 13 14 15 16 17 18 19 20 21 22 23 24 25 26 27
000
FTUS41 KPBZ 101140
TAFPIT
TAF
KPIT 101140Z 1012/1118 28010KT P6SM BKN015
     FM101400 28012G20KT P6SM SCT015 OVC035
     FM102000 24012G20KT P6SM BKN060
     FM110300 24012KT P6SM OVC025
     FM110800 27012KT P6SM OVC015=

USA.gov is the U.S. government's official web portal to all federal, state and local government web resources and services.